sensor_id;sensor_type;location;lat;lon;timestamp;P1;durP1;ratioP1;P2;durP2;ratioP2
79147;SDS011;68562;51.600;6.524;2023-05-23T00:00:00;3.2;;;2.9;;
79147;SDS011;68562;51.600;6.524;2023-05-23T00:05:00;4.1;;;2.8;;
79147;SDS011;68562;51.600;6.524;2023-05-23T00:10:00;5.3;;;2.9;;
79147;SDS011;68562;51.600;6.524;2023-05-23T00:15:00;3.9;;;3.1;;
79147;SDS011;68562;51.600;6.524;2023-05-23T00:20:00;4.2;;;3.0;;
79147;SDS011;68562;51.600;6.524;2023-05-23T00:25:00;3.8;;;3.0;;
79147;SDS011;68562;51.600;6.524;2023-05-23T00:30:00;5.1;;;3.2;;
79147;SDS011;68562;51.600;6.524;2023-05-23T00:35:00;3.7;;;3.0;;
79147;SDS011;68562;51.600;6.524;2023-05-23T00:40:00;3.6;;;2.9;;
79147;SDS011;68562;51.600;6.524;2023-05-23T00:45:00;4.2;;;3.0;;
79147;SDS011;68562;51.600;6.524;2023-05-23T00:50:00;4.6;;;3.4;;
79147;SDS011;68562;51.600;6.524;2023-05-23T00:55:00;5.9;;;3.0;;
79147;SDS011;68562;51.600;6.524;2023-05-23T01:00:00;4.5;;;3.4;;
79147;SDS011;68562;51.600;6.524;2023-05-23T01:05:00;5.2;;;3.4;;
79147;SDS011;68562;51.600;6.524;2023-05-23T01:10:01;6.6;;;3.7;;
79147;SDS011;68562;51.600;6.524;2023-05-23T01:15:03;5.6;;;3.9;;
79147;SDS011;68562;51.600;6.524;2023-05-23T01:20:01;6.2;;;3.6;;
79147;SDS011;68562;51.600;6.524;2023-05-23T01:25:03;5.5;;;3.8;;
79147;SDS011;68562;51.600;6.524;2023-05-23T01:30:00;6.8;;;3.7;;
79147;SDS011;68562;51.600;6.524;2023-05-23T01:35:00;5.4;;;3.9;;
79147;SDS011;68562;51.600;6.524;2023-05-23T01:40:00;5.0;;;3.4;;
79147;SDS011;68562;51.600;6.524;2023-05-23T01:45:00;6.8;;;3.7;;
79147;SDS011;68562;51.600;6.524;2023-05-23T01:50:00;5.2;;;3.1;;
79147;SDS011;68562;51.600;6.524;2023-05-23T01:55:00;7.2;;;3.8;;
79147;SDS011;68562;51.600;6.524;2023-05-23T02:00:00;6.7;;;3.9;;
79147;SDS011;68562;51.600;6.524;2023-05-23T02:05:00;7.2;;;3.7;;
79147;SDS011;68562;51.600;6.524;2023-05-23T02:10:00;6.9;;;4.0;;
79147;SDS011;68562;51.600;6.524;2023-05-23T02:15:00;7.6;;;4.1;;
79147;SDS011;68562;51.600;6.524;2023-05-23T02:20:00;7.5;;;4.1;;
79147;SDS011;68562;51.600;6.524;2023-05-23T02:25:00;6.7;;;3.7;;
79147;SDS011;68562;51.600;6.524;2023-05-23T02:30:00;7.4;;;3.8;;
79147;SDS011;68562;51.600;6.524;2023-05-23T02:35:00;4.8;;;3.1;;
79147;SDS011;68562;51.600;6.524;2023-05-23T02:40:00;6.1;;;3.4;;
79147;SDS011;68562;51.600;6.524;2023-05-23T02:45:00;3.9;;;2.9;;
79147;SDS011;68562;51.600;6.524;2023-05-23T02:50:00;5.9;;;2.9;;
79147;SDS011;68562;51.600;6.524;2023-05-23T02:55:00;8.7;;;3.1;;
79147;SDS011;68562;51.600;6.524;2023-05-23T03:00:00;5.2;;;2.9;;
79147;SDS011;68562;51.600;6.524;2023-05-23T03:05:00;4.5;;;3.3;;
79147;SDS011;68562;51.600;6.524;2023-05-23T03:10:00;7.3;;;3.9;;
79147;SDS011;68562;51.600;6.524;2023-05-23T03:15:00;3.8;;;3.4;;
79147;SDS011;68562;51.600;6.524;2023-05-23T03:20:00;5.6;;;3.2;;
79147;SDS011;68562;51.600;6.524;2023-05-23T03:25:00;6.2;;;4.0;;
79147;SDS011;68562;51.600;6.524;2023-05-23T03:30:00;5.9;;;3.3;;
79147;SDS011;68562;51.600;6.524;2023-05-23T03:35:00;5.5;;;3.4;;
79147;SDS011;68562;51.600;6.524;2023-05-23T03:40:00;7.2;;;4.5;;
79147;SDS011;68562;51.600;6.524;2023-05-23T03:45:00;7.3;;;4.1;;
79147;SDS011;68562;51.600;6.524;2023-05-23T03:50:00;5.9;;;4.5;;
79147;SDS011;68562;51.600;6.524;2023-05-23T03:55:00;8.8;;;3.9;;
79147;SDS011;68562;51.600;6.524;2023-05-23T04:00:00;7.1;;;4.5;;
79147;SDS011;68562;51.600;6.524;2023-05-23T04:05:00;6.2;;;4.1;;
79147;SDS011;68562;51.600;6.524;2023-05-23T04:10:00;8.7;;;4.2;;
79147;SDS011;68562;51.600;6.524;2023-05-23T04:15:00;6.8;;;4.1;;
79147;SDS011;68562;51.600;6.524;2023-05-23T04:20:00;8.5;;;4.5;;
79147;SDS011;68562;51.600;6.524;2023-05-23T04:25:00;6.9;;;4.1;;
79147;SDS011;68562;51.600;6.524;2023-05-23T04:30:00;9.8;;;4.6;;
79147;SDS011;68562;51.600;6.524;2023-05-23T04:35:00;6.7;;;4.2;;
79147;SDS011;68562;51.600;6.524;2023-05-23T04:40:00;7.3;;;3.9;;
79147;SDS011;68562;51.600;6.524;2023-05-23T04:45:00;7.9;;;4.3;;
79147;SDS011;68562;51.600;6.524;2023-05-23T04:50:00;8.7;;;4.7;;
79147;SDS011;68562;51.600;6.524;2023-05-23T04:55:00;8.7;;;4.7;;
79147;SDS011;68562;51.600;6.524;2023-05-23T05:00:00;8.5;;;4.5;;
79147;SDS011;68562;51.600;6.524;2023-05-23T05:05:00;8.8;;;4.7;;
79147;SDS011;68562;51.600;6.524;2023-05-23T05:10:00;8.4;;;4.7;;
79147;SDS011;68562;51.600;6.524;2023-05-23T05:15:01;8.1;;;4.2;;
79147;SDS011;68562;51.600;6.524;2023-05-23T05:20:00;7.3;;;4.3;;
79147;SDS011;68562;51.600;6.524;2023-05-23T05:25:00;7.8;;;4.5;;
79147;SDS011;68562;51.600;6.524;2023-05-23T05:30:00;7.8;;;4.8;;
79147;SDS011;68562;51.600;6.524;2023-05-23T05:35:00;7.9;;;4.7;;
79147;SDS011;68562;51.600;6.524;2023-05-23T05:40:00;8.4;;;4.8;;
79147;SDS011;68562;51.600;6.524;2023-05-23T05:45:00;10.6;;;4.4;;
79147;SDS011;68562;51.600;6.524;2023-05-23T05:50:00;8.2;;;4.5;;
79147;SDS011;68562;51.600;6.524;2023-05-23T05:55:00;8.4;;;4.7;;
79147;SDS011;68562;51.600;6.524;2023-05-23T06:00:00;10.2;;;4.7;;
79147;SDS011;68562;51.600;6.524;2023-05-23T06:05:00;7.9;;;4.3;;
79147;SDS011;68562;51.600;6.524;2023-05-23T06:10:00;9.4;;;3.9;;
79147;SDS011;68562;51.600;6.524;2023-05-23T06:15:00;11.0;;;4.9;;
79147;SDS011;68562;51.600;6.524;2023-05-23T06:20:00;8.4;;;5.3;;
79147;SDS011;68562;51.600;6.524;2023-05-23T06:25:00;8.5;;;4.2;;
79147;SDS011;68562;51.600;6.524;2023-05-23T06:30:01;9.3;;;5.0;;
79147;SDS011;68562;51.600;6.524;2023-05-23T06:35:00;9.4;;;4.3;;
79147;SDS011;68562;51.600;6.524;2023-05-23T06:40:00;10.8;;;4.9;;
79147;SDS011;68562;51.600;6.524;2023-05-23T06:45:00;9.1;;;5.3;;
79147;SDS011;68562;51.600;6.524;2023-05-23T06:50:00;10.2;;;4.8;;
79147;SDS011;68562;51.600;6.524;2023-05-23T06:55:00;10.7;;;4.6;;
79147;SDS011;68562;51.600;6.524;2023-05-23T07:00:00;10.1;;;4.5;;
79147;SDS011;68562;51.600;6.524;2023-05-23T07:05:00;14.5;;;6.1;;
79147;SDS011;68562;51.600;6.524;2023-05-23T07:10:00;15.6;;;4.8;;
79147;SDS011;68562;51.600;6.524;2023-05-23T07:15:00;9.3;;;4.9;;
79147;SDS011;68562;51.600;6.524;2023-05-23T07:20:00;13.0;;;4.9;;
79147;SDS011;68562;51.600;6.524;2023-05-23T07:25:00;11.9;;;5.0;;
79147;SDS011;68562;51.600;6.524;2023-05-23T07:30:00;10.4;;;4.7;;
79147;SDS011;68562;51.600;6.524;2023-05-23T07:35:00;11.2;;;5.3;;
79147;SDS011;68562;51.600;6.524;2023-05-23T07:40:00;13.2;;;4.5;;
79147;SDS011;68562;51.600;6.524;2023-05-23T07:45:00;9.0;;;4.5;;
79147;SDS011;68562;51.600;6.524;2023-05-23T07:50:00;14.7;;;5.8;;
79147;SDS011;68562;51.600;6.524;2023-05-23T07:55:00;16.7;;;5.3;;
79147;SDS011;68562;51.600;6.524;2023-05-23T08:00:00;11.2;;;5.0;;
79147;SDS011;68562;51.600;6.524;2023-05-23T08:05:00;11.0;;;4.4;;
79147;SDS011;68562;51.600;6.524;2023-05-23T08:10:00;8.9;;;4.0;;
79147;SDS011;68562;51.600;6.524;2023-05-23T08:15:00;9.1;;;4.1;;
79147;SDS011;68562;51.600;6.524;2023-05-23T08:20:00;10.9;;;4.7;;
79147;SDS011;68562;51.600;6.524;2023-05-23T08:25:00;8.1;;;4.6;;
79147;SDS011;68562;51.600;6.524;2023-05-23T08:30:00;8.2;;;3.4;;
79147;SDS011;68562;51.600;6.524;2023-05-23T08:35:00;7.2;;;3.4;;
79147;SDS011;68562;51.600;6.524;2023-05-23T08:40:01;9.2;;;3.9;;
79147;SDS011;68562;51.600;6.524;2023-05-23T08:45:00;9.4;;;4.0;;
79147;SDS011;68562;51.600;6.524;2023-05-23T08:50:00;10.0;;;4.1;;
79147;SDS011;68562;51.600;6.524;2023-05-23T08:55:00;9.2;;;3.8;;
79147;SDS011;68562;51.600;6.524;2023-05-23T09:00:00;8.0;;;3.5;;
79147;SDS011;68562;51.600;6.524;2023-05-23T09:05:00;8.8;;;3.9;;
79147;SDS011;68562;51.600;6.524;2023-05-23T09:10:00;7.7;;;3.6;;
79147;SDS011;68562;51.600;6.524;2023-05-23T09:15:00;10.1;;;3.6;;
79147;SDS011;68562;51.600;6.524;2023-05-23T09:20:00;8.4;;;3.4;;
79147;SDS011;68562;51.600;6.524;2023-05-23T09:25:00;7.0;;;3.3;;
79147;SDS011;68562;51.600;6.524;2023-05-23T09:30:04;5.9;;;3.1;;
79147;SDS011;68562;51.600;6.524;2023-05-23T09:35:01;8.7;;;3.9;;
79147;SDS011;68562;51.600;6.524;2023-05-23T09:40:01;7.8;;;3.2;;
79147;SDS011;68562;51.600;6.524;2023-05-23T09:45:00;8.4;;;3.7;;
79147;SDS011;68562;51.600;6.524;2023-05-23T09:50:00;11.2;;;3.8;;
79147;SDS011;68562;51.600;6.524;2023-05-23T09:55:00;8.2;;;3.7;;
79147;SDS011;68562;51.600;6.524;2023-05-23T10:00:02;5.1;;;3.2;;
79147;SDS011;68562;51.600;6.524;2023-05-23T10:05:00;8.0;;;3.2;;
79147;SDS011;68562;51.600;6.524;2023-05-23T10:10:02;9.2;;;3.5;;
79147;SDS011;68562;51.600;6.524;2023-05-23T10:15:01;5.0;;;2.7;;
79147;SDS011;68562;51.600;6.524;2023-05-23T10:20:03;5.9;;;2.1;;
79147;SDS011;68562;51.600;6.524;2023-05-23T10:25:01;5.3;;;2.7;;
79147;SDS011;68562;51.600;6.524;2023-05-23T10:30:00;7.1;;;2.6;;
79147;SDS011;68562;51.600;6.524;2023-05-23T10:35:00;6.6;;;2.6;;
79147;SDS011;68562;51.600;6.524;2023-05-23T10:40:02;5.5;;;2.5;;
79147;SDS011;68562;51.600;6.524;2023-05-23T10:50:00;8.7;;;2.6;;
79147;SDS011;68562;51.600;6.524;2023-05-23T10:55:00;6.2;;;2.2;;
79147;SDS011;68562;51.600;6.524;2023-05-23T11:00:00;10.2;;;2.3;;
79147;SDS011;68562;51.600;6.524;2023-05-23T11:10:01;7.6;;;2.5;;
79147;SDS011;68562;51.600;6.524;2023-05-23T11:15:00;8.6;;;3.0;;
79147;SDS011;68562;51.600;6.524;2023-05-23T11:20:02;6.8;;;2.7;;
79147;SDS011;68562;51.600;6.524;2023-05-23T11:25:00;7.0;;;2.9;;
79147;SDS011;68562;51.600;6.524;2023-05-23T11:30:02;5.7;;;2.5;;
79147;SDS011;68562;51.600;6.524;2023-05-23T11:35:00;6.3;;;2.4;;
79147;SDS011;68562;51.600;6.524;2023-05-23T11:45:00;8.5;;;2.3;;
79147;SDS011;68562;51.600;6.524;2023-05-23T11:50:00;7.5;;;2.7;;
79147;SDS011;68562;51.600;6.524;2023-05-23T11:55:00;7.8;;;2.7;;
79147;SDS011;68562;51.600;6.524;2023-05-23T12:00:00;6.6;;;2.3;;
79147;SDS011;68562;51.600;6.524;2023-05-23T12:05:05;8.1;;;2.2;;
79147;SDS011;68562;51.600;6.524;2023-05-23T12:10:00;9.6;;;2.8;;
79147;SDS011;68562;51.600;6.524;2023-05-23T12:15:00;8.8;;;2.7;;
79147;SDS011;68562;51.600;6.524;2023-05-23T12:20:00;11.5;;;2.3;;
79147;SDS011;68562;51.600;6.524;2023-05-23T12:25:00;8.7;;;2.5;;
79147;SDS011;68562;51.600;6.524;2023-05-23T12:30:04;6.3;;;2.4;;
79147;SDS011;68562;51.600;6.524;2023-05-23T12:35:00;8.2;;;2.2;;
79147;SDS011;68562;51.600;6.524;2023-05-23T12:40:08;7.5;;;3.3;;
79147;SDS011;68562;51.600;6.524;2023-05-23T12:45:00;4.9;;;2.1;;
79147;SDS011;68562;51.600;6.524;2023-05-23T12:50:00;5.1;;;2.0;;
79147;SDS011;68562;51.600;6.524;2023-05-23T12:55:00;9.6;;;3.2;;
79147;SDS011;68562;51.600;6.524;2023-05-23T13:00:00;8.0;;;2.7;;
79147;SDS011;68562;51.600;6.524;2023-05-23T13:05:00;7.7;;;2.3;;
79147;SDS011;68562;51.600;6.524;2023-05-23T13:10:00;5.7;;;2.4;;
79147;SDS011;68562;51.600;6.524;2023-05-23T13:15:00;9.6;;;2.5;;
79147;SDS011;68562;51.600;6.524;2023-05-23T13:20:00;7.5;;;2.4;;
79147;SDS011;68562;51.600;6.524;2023-05-23T13:25:00;8.1;;;2.7;;
79147;SDS011;68562;51.600;6.524;2023-05-23T13:30:00;6.5;;;2.2;;
79147;SDS011;68562;51.600;6.524;2023-05-23T13:35:00;7.7;;;2.7;;
79147;SDS011;68562;51.600;6.524;2023-05-23T13:40:01;8.4;;;2.8;;
79147;SDS011;68562;51.600;6.524;2023-05-23T13:45:00;6.1;;;2.0;;
79147;SDS011;68562;51.600;6.524;2023-05-23T13:50:00;10.6;;;2.5;;
79147;SDS011;68562;51.600;6.524;2023-05-23T13:55:00;9.3;;;2.3;;
79147;SDS011;68562;51.600;6.524;2023-05-23T14:00:00;5.9;;;1.9;;
79147;SDS011;68562;51.600;6.524;2023-05-23T14:05:00;7.0;;;2.2;;
79147;SDS011;68562;51.600;6.524;2023-05-23T14:10:00;7.4;;;2.1;;
79147;SDS011;68562;51.600;6.524;2023-05-23T14:15:00;8.5;;;2.8;;
79147;SDS011;68562;51.600;6.524;2023-05-23T14:20:00;8.5;;;1.9;;
79147;SDS011;68562;51.600;6.524;2023-05-23T14:25:00;6.1;;;1.8;;
79147;SDS011;68562;51.600;6.524;2023-05-23T14:30:00;4.4;;;2.0;;
79147;SDS011;68562;51.600;6.524;2023-05-23T14:35:00;5.9;;;2.2;;
79147;SDS011;68562;51.600;6.524;2023-05-23T14:40:00;6.4;;;2.0;;
79147;SDS011;68562;51.600;6.524;2023-05-23T14:45:00;6.0;;;1.9;;
79147;SDS011;68562;51.600;6.524;2023-05-23T14:50:00;5.3;;;1.9;;
79147;SDS011;68562;51.600;6.524;2023-05-23T14:55:00;8.1;;;2.1;;
79147;SDS011;68562;51.600;6.524;2023-05-23T15:00:00;7.4;;;1.8;;
79147;SDS011;68562;51.600;6.524;2023-05-23T15:05:00;4.5;;;1.9;;
79147;SDS011;68562;51.600;6.524;2023-05-23T15:10:00;4.2;;;1.8;;
79147;SDS011;68562;51.600;6.524;2023-05-23T15:15:00;6.3;;;1.8;;
79147;SDS011;68562;51.600;6.524;2023-05-23T15:20:00;6.7;;;1.8;;
79147;SDS011;68562;51.600;6.524;2023-05-23T15:25:01;5.0;;;2.2;;
79147;SDS011;68562;51.600;6.524;2023-05-23T15:30:00;6.3;;;2.3;;
79147;SDS011;68562;51.600;6.524;2023-05-23T15:35:00;7.7;;;2.0;;
79147;SDS011;68562;51.600;6.524;2023-05-23T15:40:00;10.3;;;2.0;;
79147;SDS011;68562;51.600;6.524;2023-05-23T15:45:00;8.7;;;2.1;;
79147;SDS011;68562;51.600;6.524;2023-05-23T15:50:00;7.5;;;2.0;;
79147;SDS011;68562;51.600;6.524;2023-05-23T15:55:00;7.8;;;2.5;;
79147;SDS011;68562;51.600;6.524;2023-05-23T16:00:00;8.0;;;2.3;;
79147;SDS011;68562;51.600;6.524;2023-05-23T16:05:00;6.3;;;2.1;;
79147;SDS011;68562;51.600;6.524;2023-05-23T16:10:00;7.8;;;1.9;;
79147;SDS011;68562;51.600;6.524;2023-05-23T16:15:00;6.6;;;1.9;;
79147;SDS011;68562;51.600;6.524;2023-05-23T16:20:00;5.9;;;1.8;;
79147;SDS011;68562;51.600;6.524;2023-05-23T16:25:00;7.0;;;2.1;;
79147;SDS011;68562;51.600;6.524;2023-05-23T16:30:00;8.8;;;2.0;;
79147;SDS011;68562;51.600;6.524;2023-05-23T16:35:00;8.7;;;2.7;;
79147;SDS011;68562;51.600;6.524;2023-05-23T16:40:00;5.9;;;2.3;;
79147;SDS011;68562;51.600;6.524;2023-05-23T16:45:00;12.4;;;2.6;;
79147;SDS011;68562;51.600;6.524;2023-05-23T16:50:00;8.9;;;2.7;;
79147;SDS011;68562;51.600;6.524;2023-05-23T16:55:01;7.8;;;2.2;;
79147;SDS011;68562;51.600;6.524;2023-05-23T17:00:00;6.3;;;2.0;;
79147;SDS011;68562;51.600;6.524;2023-05-23T17:05:00;6.1;;;2.6;;
79147;SDS011;68562;51.600;6.524;2023-05-23T17:10:00;6.6;;;2.0;;
79147;SDS011;68562;51.600;6.524;2023-05-23T17:15:00;7.9;;;2.3;;
79147;SDS011;68562;51.600;6.524;2023-05-23T17:20:00;6.8;;;2.3;;
79147;SDS011;68562;51.600;6.524;2023-05-23T17:25:00;6.5;;;2.0;;
79147;SDS011;68562;51.600;6.524;2023-05-23T17:30:00;9.2;;;2.0;;
79147;SDS011;68562;51.600;6.524;2023-05-23T17:35:00;7.1;;;2.1;;
79147;SDS011;68562;51.600;6.524;2023-05-23T17:40:00;4.7;;;1.9;;
79147;SDS011;68562;51.600;6.524;2023-05-23T17:45:00;6.2;;;1.8;;
79147;SDS011;68562;51.600;6.524;2023-05-23T17:50:01;7.2;;;2.1;;
79147;SDS011;68562;51.600;6.524;2023-05-23T17:55:00;5.0;;;2.5;;
79147;SDS011;68562;51.600;6.524;2023-05-23T18:00:00;7.0;;;1.8;;
79147;SDS011;68562;51.600;6.524;2023-05-23T18:05:00;7.6;;;2.0;;
79147;SDS011;68562;51.600;6.524;2023-05-23T18:10:00;8.5;;;2.7;;
79147;SDS011;68562;51.600;6.524;2023-05-23T18:15:00;7.7;;;1.8;;
79147;SDS011;68562;51.600;6.524;2023-05-23T18:20:00;6.7;;;1.9;;
79147;SDS011;68562;51.600;6.524;2023-05-23T18:25:00;5.7;;;1.7;;
79147;SDS011;68562;51.600;6.524;2023-05-23T18:30:00;5.9;;;1.7;;
79147;SDS011;68562;51.600;6.524;2023-05-23T18:35:00;6.1;;;1.7;;
79147;SDS011;68562;51.600;6.524;2023-05-23T18:40:00;8.7;;;2.4;;
79147;SDS011;68562;51.600;6.524;2023-05-23T18:45:00;7.4;;;1.8;;
79147;SDS011;68562;51.600;6.524;2023-05-23T18:50:00;6.3;;;1.6;;
79147;SDS011;68562;51.600;6.524;2023-05-23T18:55:00;4.8;;;1.9;;
79147;SDS011;68562;51.600;6.524;2023-05-23T19:00:01;7.2;;;2.0;;
79147;SDS011;68562;51.600;6.524;2023-05-23T19:05:01;6.4;;;2.2;;
79147;SDS011;68562;51.600;6.524;2023-05-23T19:10:00;5.1;;;2.0;;
79147;SDS011;68562;51.600;6.524;2023-05-23T19:15:00;6.5;;;2.0;;
79147;SDS011;68562;51.600;6.524;2023-05-23T19:20:00;6.7;;;1.6;;
79147;SDS011;68562;51.600;6.524;2023-05-23T19:25:00;6.9;;;2.1;;
79147;SDS011;68562;51.600;6.524;2023-05-23T19:30:00;4.9;;;1.9;;
79147;SDS011;68562;51.600;6.524;2023-05-23T19:35:00;7.0;;;2.0;;
79147;SDS011;68562;51.600;6.524;2023-05-23T19:40:00;6.1;;;1.5;;
79147;SDS011;68562;51.600;6.524;2023-05-23T19:45:00;6.1;;;1.5;;
79147;SDS011;68562;51.600;6.524;2023-05-23T19:50:00;7.0;;;1.9;;
79147;SDS011;68562;51.600;6.524;2023-05-23T19:55:00;10.9;;;2.4;;
79147;SDS011;68562;51.600;6.524;2023-05-23T20:00:00;6.8;;;1.7;;
79147;SDS011;68562;51.600;6.524;2023-05-23T20:05:00;5.5;;;1.8;;
79147;SDS011;68562;51.600;6.524;2023-05-23T20:10:00;3.9;;;2.1;;
79147;SDS011;68562;51.600;6.524;2023-05-23T20:15:01;10.6;;;2.0;;
79147;SDS011;68562;51.600;6.524;2023-05-23T20:20:00;10.6;;;1.8;;
79147;SDS011;68562;51.600;6.524;2023-05-23T20:25:00;7.0;;;1.9;;
79147;SDS011;68562;51.600;6.524;2023-05-23T20:30:00;6.4;;;2.1;;
79147;SDS011;68562;51.600;6.524;2023-05-23T20:35:00;6.6;;;1.6;;
79147;SDS011;68562;51.600;6.524;2023-05-23T20:40:00;9.6;;;1.6;;
79147;SDS011;68562;51.600;6.524;2023-05-23T20:45:00;7.5;;;1.7;;
79147;SDS011;68562;51.600;6.524;2023-05-23T20:50:00;5.9;;;1.7;;
79147;SDS011;68562;51.600;6.524;2023-05-23T20:55:00;5.7;;;1.4;;
79147;SDS011;68562;51.600;6.524;2023-05-23T21:00:00;7.7;;;1.7;;
79147;SDS011;68562;51.600;6.524;2023-05-23T21:05:00;7.1;;;1.8;;
79147;SDS011;68562;51.600;6.524;2023-05-23T21:10:00;5.4;;;1.8;;
79147;SDS011;68562;51.600;6.524;2023-05-23T21:15:00;7.2;;;1.8;;
79147;SDS011;68562;51.600;6.524;2023-05-23T21:20:00;6.5;;;2.4;;
79147;SDS011;68562;51.600;6.524;2023-05-23T21:25:00;4.1;;;1.4;;
79147;SDS011;68562;51.600;6.524;2023-05-23T21:30:00;8.0;;;1.6;;
79147;SDS011;68562;51.600;6.524;2023-05-23T21:35:00;7.5;;;2.1;;
79147;SDS011;68562;51.600;6.524;2023-05-23T21:40:00;8.2;;;1.8;;
79147;SDS011;68562;51.600;6.524;2023-05-23T21:45:00;6.3;;;1.9;;
79147;SDS011;68562;51.600;6.524;2023-05-23T21:50:00;6.0;;;1.6;;
79147;SDS011;68562;51.600;6.524;2023-05-23T21:55:00;5.6;;;1.5;;
79147;SDS011;68562;51.600;6.524;2023-05-23T22:00:00;4.8;;;1.6;;
79147;SDS011;68562;51.600;6.524;2023-05-23T22:05:00;5.8;;;1.8;;
79147;SDS011;68562;51.600;6.524;2023-05-23T22:10:00;4.9;;;2.3;;
79147;SDS011;68562;51.600;6.524;2023-05-23T22:15:00;12.0;;;1.7;;
79147;SDS011;68562;51.600;6.524;2023-05-23T22:20:00;10.0;;;1.9;;
79147;SDS011;68562;51.600;6.524;2023-05-23T22:25:00;10.9;;;2.8;;
79147;SDS011;68562;51.600;6.524;2023-05-23T22:30:00;8.1;;;1.8;;
79147;SDS011;68562;51.600;6.524;2023-05-23T22:35:00;5.3;;;1.6;;
79147;SDS011;68562;51.600;6.524;2023-05-23T22:40:00;6.4;;;2.0;;
79147;SDS011;68562;51.600;6.524;2023-05-23T22:45:00;6.0;;;2.0;;
79147;SDS011;68562;51.600;6.524;2023-05-23T22:50:00;7.6;;;1.7;;
79147;SDS011;68562;51.600;6.524;2023-05-23T22:55:00;4.0;;;1.5;;
79147;SDS011;68562;51.600;6.524;2023-05-23T23:00:00;4.4;;;1.9;;
79147;SDS011;68562;51.600;6.524;2023-05-23T23:05:00;6.8;;;2.0;;
79147;SDS011;68562;51.600;6.524;2023-05-23T23:10:00;6.0;;;2.2;;
79147;SDS011;68562;51.600;6.524;2023-05-23T23:15:00;5.3;;;1.7;;
79147;SDS011;68562;51.600;6.524;2023-05-23T23:20:00;7.2;;;1.9;;
79147;SDS011;68562;51.600;6.524;2023-05-23T23:25:00;5.6;;;2.2;;
79147;SDS011;68562;51.600;6.524;2023-05-23T23:30:00;10.1;;;1.8;;
79147;SDS011;68562;51.600;6.524;2023-05-23T23:35:00;13.5;;;2.3;;
79147;SDS011;68562;51.600;6.524;2023-05-23T23:40:00;9.3;;;1.9;;
79147;SDS011;68562;51.600;6.524;2023-05-23T23:45:00;8.2;;;1.7;;
79147;SDS011;68562;51.600;6.524;2023-05-23T23:50:00;7.4;;;1.9;;
79147;SDS011;68562;51.600;6.524;2023-05-23T23:55:00;9.3;;;1.8;;
